Time;durP1;ratioP1;P1;durP2;ratioP2;P2;SDS_P1;SDS_P2;PMS_P1;PMS_P2;Temp;Humidity;BMP_temperature;BMP_pressure;BME280_temperature;BME280_humidity;BME280_pressure;Samples;Min_cycle;Max_cycle;Signal;HPM_P1;HPM_P2
2021/05/30 00:00:17;;;;;;;16.40;7.30;;;;;;;9.02;69.22;99122.03;125509;1104;103558;-71
2021/05/30 00:03:06;;;;;;;17.93;7.33;;;;;;;9.00;68.95;99123.10;126199;1100;101845;-71
2021/05/30 00:05:36;;;;;;;17.37;7.70;;;;;;;8.99;68.86;99124.89;125464;1104;103123;-73
2021/05/30 00:08:05;;;;;;;14.93;6.60;;;;;;;8.96;69.03;99117.16;125479;1096;103121;-72
2021/05/30 00:10:34;;;;;;;13.30;6.20;;;;;;;8.95;69.22;99115.45;125338;1096;103531;-71
2021/05/30 00:13:03;;;;;;;15.17;6.40;;;;;;;8.93;69.52;99112.89;125477;1104;102994;-72
2021/05/30 00:15:32;;;;;;;15.40;6.67;;;;;;;8.95;69.52;99112.80;125463;1104;102995;-72
2021/05/30 00:18:00;;;;;;;14.53;6.87;;;;;;;8.96;69.17;99108.33;125436;1096;102985;-72
2021/05/30 00:20:28;;;;;;;13.33;6.40;;;;;;;8.96;69.21;99117.16;125506;1096;103144;-72
2021/05/30 00:22:56;;;;;;;14.47;6.53;;;;;;;8.98;69.57;99117.88;125413;1104;103073;-73
2021/05/30 00:25:25;;;;;;;13.77;6.40;;;;;;;9.00;69.80;99120.45;125474;1104;103062;-72
2021/05/30 00:27:53;;;;;;;14.63;6.63;;;;;;;9.01;69.59;99114.19;125447;1097;103053;-71
2021/05/30 00:30:22;;;;;;;14.43;6.80;;;;;;;9.00;69.69;99117.80;125536;1104;103409;-72
2021/05/30 00:32:51;;;;;;;14.07;6.63;;;;;;;9.00;69.77;99109.84;125574;1096;103187;-72
2021/05/30 00:35:19;;;;;;;15.67;6.50;;;;;;;8.99;69.78;99116.93;125538;1104;103008;-71
2021/05/30 00:37:47;;;;;;;13.67;6.30;;;;;;;8.99;69.76;99106.31;125503;1104;103046;-71
2021/05/30 00:40:16;;;;;;;12.53;6.17;;;;;;;8.98;69.88;99117.88;125487;1104;103014;-72
2021/05/30 00:42:44;;;;;;;15.57;6.50;;;;;;;8.98;69.55;99107.27;125481;1104;102991;-73
2021/05/30 00:45:13;;;;;;;13.70;6.07;;;;;;;8.97;69.82;99113.52;125496;1104;102992;-72
2021/05/30 00:47:41;;;;;;;12.10;6.20;;;;;;;8.98;69.76;99114.39;125474;1099;103174;-71
2021/05/30 00:50:11;;;;;;;15.90;6.50;;;;;;;8.96;69.93;99108.33;125452;1104;103103;-72
2021/05/30 00:52:42;;;;;;;12.93;6.43;;;;;;;8.96;69.99;99110.98;125495;1104;102959;-73
2021/05/30 00:55:13;;;;;;;16.10;6.17;;;;;;;8.93;70.01;99104.92;125508;1104;103017;-72
2021/05/30 00:57:42;;;;;;;14.30;6.10;;;;;;;8.95;69.98;99112.80;125547;1104;102987;-73
2021/05/30 01:00:15;;;;;;;14.17;6.40;;;;;;;8.96;69.77;99111.85;125456;1104;102979;-72
2021/05/30 01:02:43;;;;;;;11.50;5.75;;;;;;;8.95;70.09;99115.45;125528;1096;103137;-73
2021/05/30 01:05:13;;;;;;;11.73;5.93;;;;;;;8.94;69.87;99108.45;125403;1104;102979;-71
2021/05/30 01:07:45;;;;;;;14.20;5.93;;;;;;;8.93;69.81;99117.36;125568;1104;103059;-72
2021/05/30 01:10:29;;;;;;;11.00;5.20;;;;;;;8.90;69.85;99113.08;125510;1104;103062;-73
2021/05/30 01:12:59;;;;;;;11.07;5.17;;;;;;;8.90;70.07;99110.43;125535;1104;102985;-72
2021/05/30 01:15:31;;;;;;;12.77;6.20;;;;;;;8.89;70.19;99114.03;125475;1096;103123;-72
2021/05/30 01:18:02;;;;;;;12.28;5.68;;;;;;;8.89;70.07;99111.38;125481;1104;103037;-72
2021/05/30 01:20:30;;;;;;;14.90;6.57;;;;;;;8.90;70.21;99105.13;125586;1104;103037;-72
2021/05/30 01:23:07;;;;;;;10.93;5.40;;;;;;;8.91;70.08;99108.65;125532;1104;103119;-72
2021/05/30 01:25:37;;;;;;;13.13;6.30;;;;;;;8.92;70.34;99103.23;125509;1104;103071;-72
2021/05/30 01:28:06;;;;;;;12.47;5.83;;;;;;;8.94;70.05;99105.80;125500;1096;103086;-71
2021/05/30 01:30:36;;;;;;;11.17;4.93;;;;;;;8.95;70.30;99102.19;125520;1099;103167;-73
2021/05/30 01:33:05;;;;;;;10.10;4.70;;;;;;;8.91;69.98;99093.56;125418;1104;102124;-73
2021/05/30 01:35:34;;;;;;;9.27;4.63;;;;;;;8.90;70.33;99099.82;125307;1104;103432;-72
2021/05/30 01:38:03;;;;;;;11.50;5.03;;;;;;;8.89;70.11;99092.81;125402;1104;103009;-72
2021/05/30 01:40:33;;;;;;;12.37;5.37;;;;;;;8.89;69.89;99094.63;125400;1104;102988;-72
2021/05/30 01:43:01;;;;;;;11.20;5.67;;;;;;;8.90;70.33;99094.52;126456;1104;103020;-72
2021/05/30 01:45:34;;;;;;;13.23;5.67;;;;;;;8.94;70.34;99089.88;125469;1104;102990;-72
2021/05/30 01:48:04;;;;;;;11.18;5.13;;;;;;;8.96;70.05;99095.94;125582;1104;103048;-72
2021/05/30 01:50:35;;;;;;;10.83;5.67;;;;;;;8.95;70.04;99094.23;125396;1104;103109;-72
2021/05/30 01:53:11;;;;;;;13.20;5.95;;;;;;;8.98;70.60;99104.61;125503;1104;103079;-73
2021/05/30 01:56:55;;;;;;;12.70;6.60;;;;;;;8.98;70.14;99094.00;125483;1104;103179;-74
2021/05/30 01:58:43;;;;;;;14.60;6.00;;;;;;;8.98;70.19;99090.52;125549;1104;103165;-74
2021/05/30 02:01:15;;;;;;;13.03;6.30;;;;;;;8.99;70.74;99097.52;125487;1104;103139;-73
2021/05/30 02:03:45;;;;;;;17.80;8.07;;;;;;;8.98;70.59;99101.96;125481;1096;102987;-72
2021/05/30 02:06:18;;;;;;;17.00;7.90;;;;;;;8.98;70.65;99099.31;125583;1104;102990;-72
2021/05/30 02:08:48;;;;;;;18.03;8.33;;;;;;;8.97;70.32;99102.08;125494;1104;103062;-72
2021/05/30 02:11:19;;;;;;;17.83;9.20;;;;;;;8.93;70.63;99096.13;125558;1096;103107;-72
2021/05/30 02:13:47;;;;;;;21.10;11.77;;;;;;;8.91;70.37;99098.03;125500;1104;103013;-73
2021/05/30 02:16:17;;;;;;;20.43;11.10;;;;;;;8.87;70.13;99096.53;125507;1104;103081;-72
2021/05/30 02:18:46;;;;;;;24.57;14.50;;;;;;;8.84;70.28;99102.87;125445;1096;103019;-75
2021/05/30 02:21:14;;;;;;;24.47;14.67;;;;;;;8.81;70.53;99099.58;125896;1104;103011;-74
2021/05/30 02:23:43;;;;;;;27.27;15.80;;;;;;;8.77;70.38;99090.95;125589;1096;102971;-73
2021/05/30 02:26:12;;;;;;;25.43;14.33;;;;;;;8.73;70.81;99092.97;125515;1096;103102;-74
2021/05/30 02:28:40;;;;;;;26.33;14.13;;;;;;;8.72;70.55;99104.52;125551;1104;103017;-72
2021/05/30 02:31:09;;;;;;;25.67;15.50;;;;;;;8.66;70.50;99107.56;125568;1104;103159;-74
2021/05/30 02:33:37;;;;;;;25.90;15.97;;;;;;;8.65;70.65;99100.55;125591;1104;103083;-74
2021/05/30 02:36:05;;;;;;;24.83;14.73;;;;;;;8.62;70.71;99106.92;125577;1096;102990;-76
2021/05/30 02:38:36;;;;;;;25.00;14.90;;;;;;;8.59;70.52;99098.30;125630;1096;103086;-74
2021/05/30 02:41:04;;;;;;;25.53;15.37;;;;;;;8.57;70.43;99103.71;125572;1096;103099;-72
2021/05/30 02:43:33;;;;;;;26.43;15.53;;;;;;;8.58;70.91;99104.55;125549;1104;103085;-73
2021/05/30 02:46:02;;;;;;;25.73;15.50;;;;;;;8.56;70.84;99096.70;125574;1104;103088;-73
2021/05/30 02:48:32;;;;;;;27.17;14.97;;;;;;;8.58;70.38;99096.59;125591;1104;103022;-73
2021/05/30 02:51:00;;;;;;;23.23;13.50;;;;;;;8.57;70.65;99097.54;125594;1104;103482;-71
2021/05/30 02:53:32;;;;;;;23.73;13.63;;;;;;;8.55;70.69;99099.47;125534;1104;103077;-73
2021/05/30 02:56:02;;;;;;;24.70;14.77;;;;;;;8.55;70.52;99102.95;125627;1096;103636;-72
2021/05/30 02:58:31;;;;;;;27.30;14.83;;;;;;;8.55;70.63;99096.82;125622;1104;103251;-73
2021/05/30 03:01:00;;;;;;;26.67;14.47;;;;;;;8.54;71.11;99101.25;125644;1104;103123;-72
2021/05/30 03:03:28;;;;;;;23.60;14.27;;;;;;;8.54;70.97;99103.91;125631;1104;103106;-72
2021/05/30 03:05:56;;;;;;;25.00;14.33;;;;;;;8.55;70.82;99110.91;125585;1096;103103;-71
2021/05/30 03:08:24;;;;;;;27.27;15.30;;;;;;;8.55;70.58;99102.13;125526;1104;103102;-73
2021/05/30 03:10:53;;;;;;;24.97;14.67;;;;;;;8.54;71.14;99111.86;125552;1104;102995;-75
2021/05/30 03:13:21;;;;;;;28.07;15.03;;;;;;;8.55;70.99;99107.42;125472;1104;103643;-73
2021/05/30 03:15:49;;;;;;;29.53;16.40;;;;;;;8.54;71.03;99113.67;125588;1104;104539;-72
2021/05/30 03:18:17;;;;;;;26.13;15.47;;;;;;;8.53;70.70;99110.16;125493;1104;103073;-70
2021/05/30 03:20:46;;;;;;;29.17;15.97;;;;;;;8.53;71.07;99110.16;125489;1104;103014;-70
2021/05/30 03:23:15;;;;;;;26.43;14.90;;;;;;;8.52;70.76;99112.92;125476;1104;103016;-72
2021/05/30 03:25:44;;;;;;;25.90;14.80;;;;;;;8.48;70.95;99112.21;125480;1104;103013;-73
2021/05/30 03:28:12;;;;;;;25.37;14.47;;;;;;;8.48;71.16;99105.16;125553;1104;103488;-73
2021/05/30 03:30:41;;;;;;;25.33;14.23;;;;;;;8.49;71.17;99101.56;125497;1104;103019;-72
2021/05/30 03:33:10;;;;;;;24.73;15.13;;;;;;;8.49;71.21;99104.21;125523;1104;103016;-72
2021/05/30 03:35:38;;;;;;;24.87;14.27;;;;;;;8.49;71.26;99108.64;125833;1096;103011;-72
2021/05/30 03:38:10;;;;;;;24.20;14.60;;;;;;;8.51;70.83;99100.61;125687;1096;102989;-72
2021/05/30 03:43:10;;;;;;;28.47;15.27;;;;;;;8.51;71.09;99105.91;125437;1104;102988;-71
2021/05/30 03:45:40;;;;;;;24.07;14.10;;;;;;;8.53;71.32;99104.85;125481;1104;103106;-72
2021/05/30 03:48:09;;;;;;;26.13;13.97;;;;;;;8.54;71.06;99114.51;125428;1104;103006;-73
2021/05/30 03:50:37;;;;;;;23.13;12.20;;;;;;;8.58;71.06;99107.20;125498;1104;103016;-73
2021/05/30 03:53:06;;;;;;;25.47;13.40;;;;;;;8.61;71.34;99115.83;125514;1096;103068;-72
2021/05/30 03:55:35;;;;;;;23.57;13.20;;;;;;;8.66;71.25;99109.38;125572;1104;102988;-73
2021/05/30 03:58:03;;;;;;;23.17;12.63;;;;;;;8.71;71.33;99123.20;125486;1104;103059;-74
2021/05/30 04:00:31;;;;;;;23.83;13.53;;;;;;;8.74;71.27;99123.84;125534;1096;103075;-71
2021/05/30 04:02:59;;;;;;;23.97;12.30;;;;;;;8.74;71.28;99120.35;125525;1096;102990;-70
2021/05/30 04:05:28;;;;;;;25.30;13.70;;;;;;;8.72;71.38;99130.20;125484;1096;103137;-72
2021/05/30 04:07:56;;;;;;;22.33;12.07;;;;;;;8.75;71.54;99130.84;126523;1096;103090;-71
2021/05/30 04:10:26;;;;;;;22.45;11.25;;;;;;;8.81;71.26;99129.59;125556;1096;103059;-73
2021/05/30 04:12:54;;;;;;;24.00;11.13;;;;;;;8.87;71.50;99125.71;125616;1104;103046;-73
2021/05/30 04:15:23;;;;;;;22.90;12.10;;;;;;;8.86;71.42;99127.50;125506;1096;102990;-74
2021/05/30 04:17:51;;;;;;;22.80;11.77;;;;;;;8.90;71.16;99133.47;125566;1104;102991;-75
2021/05/30 04:20:21;;;;;;;24.40;13.63;;;;;;;8.94;71.42;99140.28;125554;1104;102997;-72
2021/05/30 04:22:50;;;;;;;23.63;12.87;;;;;;;8.98;71.33;99135.61;127582;1104;100993;-72
2021/05/30 04:25:19;;;;;;;24.03;13.10;;;;;;;8.97;71.46;99129.44;125457;1104;102986;-72
2021/05/30 04:27:48;;;;;;;26.50;13.37;;;;;;;8.99;71.71;99135.50;125561;1096;102991;-72
2021/05/30 04:30:17;;;;;;;23.40;12.53;;;;;;;9.03;71.57;99128.21;125584;1104;102949;-70
2021/05/30 04:32:45;;;;;;;23.80;13.67;;;;;;;9.05;71.48;99121.84;125376;1104;102994;-70
2021/05/30 04:35:13;;;;;;;23.27;13.57;;;;;;;9.05;71.24;99123.66;125491;1096;103275;-71
2021/05/30 04:37:42;;;;;;;23.40;13.00;;;;;;;9.07;71.49;99117.28;125396;1096;102997;-71
2021/05/30 04:40:11;;;;;;;23.43;12.63;;;;;;;9.08;71.33;99118.15;126085;1104;102955;-73
2021/05/30 04:42:40;;;;;;;23.20;13.00;;;;;;;9.09;71.48;99118.03;125503;1105;103126;-73
2021/05/30 04:45:09;;;;;;;24.17;12.10;;;;;;;9.13;71.25;99116.05;125368;1104;103150;-72
2021/05/30 04:47:37;;;;;;;25.30;13.73;;;;;;;9.18;71.67;99111.27;127390;1104;100773;-72
2021/05/30 04:50:06;;;;;;;22.87;12.57;;;;;;;9.22;71.71;99109.27;125439;1104;103066;-71
2021/05/30 04:52:40;;;;;;;22.37;12.57;;;;;;;9.26;71.01;99118.73;125549;1104;103050;-72
2021/05/30 04:55:11;;;;;;;22.83;12.57;;;;;;;9.27;71.61;99123.09;125474;1096;103253;-71
2021/05/30 04:57:42;;;;;;;24.23;12.77;;;;;;;9.27;71.58;99120.44;125432;1104;103095;-72
2021/05/30 05:00:12;;;;;;;22.00;12.43;;;;;;;9.28;71.56;99132.76;125565;1104;103102;-72
2021/05/30 05:02:41;;;;;;;26.57;12.70;;;;;;;9.30;71.56;99135.30;125554;1104;103106;-73
2021/05/30 05:05:12;;;;;;;22.60;12.47;;;;;;;9.29;71.59;99133.59;125577;1104;102997;-72
2021/05/30 05:07:44;;;;;;;22.57;12.10;;;;;;;9.28;71.67;99130.10;125583;1096;103190;-73
2021/05/30 05:10:13;;;;;;;25.20;13.17;;;;;;;9.32;71.52;99128.08;125445;1104;103177;-73
2021/05/30 05:12:43;;;;;;;22.63;12.10;;;;;;;9.33;71.60;99127.13;125569;1104;102996;-72
2021/05/30 05:15:13;;;;;;;22.23;12.37;;;;;;;9.33;71.69;99124.47;125463;1096;103086;-72
2021/05/30 05:17:41;;;;;;;21.80;12.03;;;;;;;9.35;71.52;99127.88;125593;1104;103081;-74
2021/05/30 05:20:12;;;;;;;23.57;12.23;;;;;;;9.37;71.66;99129.46;125542;1104;102982;-76
2021/05/30 05:22:40;;;;;;;23.27;12.97;;;;;;;9.36;71.62;99122.48;125550;1097;103044;-72
2021/05/30 05:25:11;;;;;;;24.70;13.57;;;;;;;9.35;71.57;99123.44;125602;1104;103214;-73
2021/05/30 05:27:39;;;;;;;24.40;12.90;;;;;;;9.38;71.55;99132.98;125548;1104;102991;-74
2021/05/30 05:30:09;;;;;;;23.57;13.00;;;;;;;9.40;71.63;99139.05;125639;1096;103082;-71
2021/05/30 05:32:37;;;;;;;22.87;13.07;;;;;;;9.42;71.72;99137.14;125649;1104;103241;-72
2021/05/30 05:35:06;;;;;;;24.63;13.43;;;;;;;9.45;71.49;99133.41;125565;1104;103018;-74
2021/05/30 05:37:34;;;;;;;23.33;12.10;;;;;;;9.45;71.60;99130.76;125648;1104;103088;-73
2021/05/30 05:40:03;;;;;;;23.50;12.60;;;;;;;9.46;71.52;99130.67;125549;1096;103141;-75
2021/05/30 05:42:37;;;;;;;25.20;12.43;;;;;;;9.47;71.49;99129.72;125572;1096;103080;-74
2021/05/30 05:45:07;;;;;;;24.63;14.03;;;;;;;9.45;71.49;99142.25;125540;1096;103055;-72
2021/05/30 05:47:35;;;;;;;23.00;13.20;;;;;;;9.45;71.53;99141.38;125544;1104;102995;-74
2021/05/30 05:50:07;;;;;;;23.70;13.90;;;;;;;9.45;71.51;99136.94;125600;1104;104688;-76
2021/05/30 05:52:38;;;;;;;22.35;12.38;;;;;;;9.45;71.71;99138.72;125588;1104;103540;-79
2021/05/30 05:55:10;;;;;;;22.57;13.63;;;;;;;9.46;71.74;99141.30;125624;1104;103013;-76
2021/05/30 05:57:40;;;;;;;25.60;13.80;;;;;;;9.47;71.73;99143.00;125650;1104;103128;-74
2021/05/30 06:00:13;;;;;;;25.03;14.20;;;;;;;9.49;71.81;99142.88;125627;1104;103085;-81
2021/05/30 06:02:46;;;;;;;25.23;14.63;;;;;;;9.48;71.63;99143.83;125584;1104;104594;-76
2021/05/30 06:05:18;;;;;;;22.98;13.20;;;;;;;9.47;71.95;99143.00;125566;1104;103071;-76
2021/05/30 06:07:50;;;;;;;25.37;14.37;;;;;;;9.48;71.62;99154.45;125584;1104;103107;-73
2021/05/30 06:10:24;;;;;;;23.60;13.97;;;;;;;9.45;71.78;99147.55;125605;1104;103115;-75
2021/05/30 06:12:55;;;;;;;28.30;15.85;;;;;;;9.45;71.78;99152.00;125533;1104;103009;-74
2021/05/30 06:15:25;;;;;;;25.80;15.70;;;;;;;9.43;71.94;99153.91;125596;1096;103044;-73
2021/05/30 06:17:57;;;;;;;26.70;15.77;;;;;;;9.42;71.84;99153.06;125548;1096;103080;-73
2021/05/30 06:20:26;;;;;;;25.60;15.10;;;;;;;9.43;71.71;99153.91;125481;1104;103080;-69
2021/05/30 06:22:55;;;;;;;27.67;15.70;;;;;;;9.45;71.82;99154.66;126302;1096;101744;-71
2021/05/30 06:25:26;;;;;;;26.47;16.43;;;;;;;9.44;71.90;99161.78;125391;1104;102980;-71
2021/05/30 06:27:57;;;;;;;27.17;16.40;;;;;;;9.44;71.99;99160.92;125547;1104;103083;-72
2021/05/30 06:30:29;;;;;;;27.03;16.63;;;;;;;9.44;71.93;99168.88;125469;1104;103080;-73
2021/05/30 06:32:57;;;;;;;25.57;16.73;;;;;;;9.43;71.56;99159.22;125569;1104;102987;-77
2021/05/30 06:35:28;;;;;;;28.20;16.13;;;;;;;9.43;71.89;99161.87;125565;1104;103123;-81
2021/05/30 06:37:57;;;;;;;25.03;16.00;;;;;;;9.43;71.96;99168.05;125602;1104;103152;-74
2021/05/30 06:40:25;;;;;;;27.70;17.00;;;;;;;9.43;71.83;99170.70;125506;1105;102984;-74
2021/05/30 06:42:55;;;;;;;26.90;16.63;;;;;;;9.46;72.01;99165.19;125541;1104;103075;-76
2021/05/30 06:45:25;;;;;;;31.17;17.87;;;;;;;9.48;71.85;99167.73;125476;1096;103183;-73
2021/05/30 06:47:55;;;;;;;29.10;17.70;;;;;;;9.49;72.03;99164.12;125457;1096;103128;-74
2021/05/30 06:50:24;;;;;;;24.37;15.43;;;;;;;9.48;72.03;99159.77;125438;1104;103013;-73
2021/05/30 06:52:53;;;;;;;28.10;17.40;;;;;;;9.48;72.03;99165.08;125442;1104;103077;-73
2021/05/30 06:55:23;;;;;;;25.47;16.20;;;;;;;9.48;72.18;99167.73;125529;1104;102979;-72
2021/05/30 06:57:51;;;;;;;26.07;17.10;;;;;;;9.51;72.00;99170.19;126362;1104;103501;-73
2021/05/30 07:00:21;;;;;;;28.40;17.70;;;;;;;9.52;72.07;99170.09;125588;1104;103114;-73
2021/05/30 07:02:52;;;;;;;26.83;17.90;;;;;;;9.55;72.10;99166.38;125512;1103;103051;-72
2021/05/30 07:05:22;;;;;;;29.60;18.67;;;;;;;9.55;72.20;99162.88;125568;1104;102984;-74
2021/05/30 07:07:51;;;;;;;27.87;16.90;;;;;;;9.55;72.19;99171.68;125543;1096;103117;-74
2021/05/30 07:10:19;;;;;;;27.13;18.43;;;;;;;9.59;72.06;99170.52;125558;1104;103106;-75
2021/05/30 07:12:47;;;;;;;25.90;17.33;;;;;;;9.61;72.23;99160.66;125572;1096;103137;-76
2021/05/30 07:15:15;;;;;;;30.17;20.43;;;;;;;9.66;72.20;99157.67;125529;1104;103107;-74
2021/05/30 07:17:44;;;;;;;29.87;20.40;;;;;;;9.71;72.16;99162.70;125564;1104;103080;-75
2021/05/30 07:20:15;;;;;;;30.23;20.30;;;;;;;9.76;72.44;99168.55;125564;1104;103036;-75
2021/05/30 07:22:43;;;;;;;31.73;20.50;;;;;;;9.80;72.23;99170.02;125547;1096;103012;-73
2021/05/30 07:25:13;;;;;;;34.37;21.43;;;;;;;9.83;72.32;99165.36;125553;1096;103124;-72
2021/05/30 07:27:41;;;;;;;29.47;19.50;;;;;;;9.88;72.29;99172.17;125524;1104;102989;-72
2021/05/30 07:30:11;;;;;;;29.53;20.03;;;;;;;9.92;72.44;99171.84;125573;1104;103017;-73
2021/05/30 07:32:39;;;;;;;28.63;18.40;;;;;;;9.96;72.37;99177.81;125257;1104;103082;-74
2021/05/30 07:35:08;;;;;;;29.57;19.00;;;;;;;10.01;72.44;99180.15;125480;1096;102987;-73
2021/05/30 07:37:37;;;;;;;28.10;19.70;;;;;;;10.03;72.15;99181.73;125514;1101;103134;-72
2021/05/30 07:40:06;;;;;;;28.60;19.43;;;;;;;10.08;72.31;99178.77;125475;1104;103010;-73
2021/05/30 07:42:35;;;;;;;31.40;19.55;;;;;;;10.10;72.20;99176.86;125647;1102;103016;-73
2021/05/30 07:45:05;;;;;;;28.37;19.03;;;;;;;10.14;72.23;99181.02;125588;1096;102981;-74
2021/05/30 07:47:33;;;;;;;33.50;22.23;;;;;;;10.18;72.29;99181.64;125598;1102;103110;-72
2021/05/30 07:50:02;;;;;;;30.80;21.07;;;;;;;10.20;72.34;99188.53;125522;1104;104481;-73
2021/05/30 07:52:31;;;;;;;28.80;19.73;;;;;;;10.24;72.35;99191.85;125559;1103;103015;-74
2021/05/30 07:54:59;;;;;;;28.50;20.33;;;;;;;10.27;72.38;99187.16;125563;1102;103155;-75
2021/05/30 07:57:28;;;;;;;30.37;19.67;;;;;;;10.28;72.39;99188.02;125541;1102;103120;-72
2021/05/30 07:59:57;;;;;;;30.30;19.47;;;;;;;10.32;72.28;99193.97;125544;1104;103085;-76
2021/05/30 08:02:25;;;;;;;27.47;17.97;;;;;;;10.35;72.38;99191.09;125528;1104;102987;-77
2021/05/30 08:04:55;;;;;;;28.47;18.87;;;;;;;10.38;72.53;99182.91;125504;1102;103009;-75
2021/05/30 08:07:24;;;;;;;31.15;20.10;;;;;;;10.41;72.49;99196.02;125531;1096;102981;-74
2021/05/30 08:09:52;;;;;;;28.70;19.33;;;;;;;10.45;72.51;99194.85;125513;1102;103146;-73
2021/05/30 08:12:21;;;;;;;26.63;17.60;;;;;;;10.49;72.48;99190.16;125494;1104;103080;-76
2021/05/30 08:14:49;;;;;;;25.37;17.30;;;;;;;10.54;72.79;99193.34;125517;1104;103238;-75
2021/05/30 08:17:18;;;;;;;28.57;17.33;;;;;;;10.59;72.52;99191.21;125509;1102;103013;-73
2021/05/30 08:19:46;;;;;;;25.10;17.07;;;;;;;10.64;72.49;99198.85;125555;1101;103698;-73
2021/05/30 08:22:15;;;;;;;26.37;18.50;;;;;;;10.69;72.54;99200.25;125562;1104;103067;-75
2021/05/30 08:24:47;;;;;;;27.40;18.80;;;;;;;10.74;72.58;99201.73;125564;1101;103010;-74
2021/05/30 08:27:18;;;;;;;25.30;17.20;;;;;;;10.75;72.42;99201.61;125538;1104;103119;-74
2021/05/30 08:29:47;;;;;;;28.83;19.50;;;;;;;10.77;72.53;99191.70;125539;1096;103718;-74
2021/05/30 08:32:16;;;;;;;28.37;19.90;;;;;;;10.78;72.50;99198.73;125581;1104;103014;-75
2021/05/30 08:34:45;;;;;;;29.53;19.90;;;;;;;10.77;72.50;99197.03;125480;1104;103032;-75
2021/05/30 08:37:14;;;;;;;29.67;21.97;;;;;;;10.80;72.48;99210.11;125552;1104;103063;-75
2021/05/30 08:39:42;;;;;;;31.67;22.13;;;;;;;10.81;72.50;99214.48;125596;1096;103138;-75
2021/05/30 08:42:12;;;;;;;30.27;21.83;;;;;;;10.81;72.55;99211.81;125927;1101;103109;-77
2021/05/30 08:44:40;;;;;;;29.80;19.93;;;;;;;10.81;72.55;99217.14;125523;1104;102966;-77
2021/05/30 08:47:09;;;;;;;28.33;18.77;;;;;;;10.85;72.60;99210.64;125538;1104;103123;-78
2021/05/30 08:49:37;;;;;;;27.33;18.30;;;;;;;10.86;72.53;99206.16;125574;1104;103077;-76
2021/05/30 08:52:08;;;;;;;27.67;18.00;;;;;;;10.86;72.45;99220.33;125588;1096;102984;-75
2021/05/30 08:54:36;;;;;;;26.17;16.93;;;;;;;10.87;72.74;99211.38;125507;1104;102982;-81
2021/05/30 08:57:04;;;;;;;25.43;16.97;;;;;;;10.84;72.42;99208.94;125670;1104;103077;-75
2021/05/30 08:59:41;;;;;;;25.93;17.00;;;;;;;10.85;72.48;99218.63;125556;1104;103065;-73
2021/05/30 09:02:13;;;;;;;25.00;16.00;;;;;;;10.84;72.58;99208.94;125576;1104;103009;-76
2021/05/30 09:04:44;;;;;;;26.80;16.67;;;;;;;10.86;72.76;99211.47;125555;1104;103122;-73
2021/05/30 09:07:15;;;;;;;26.27;16.93;;;;;;;10.87;72.42;99210.52;125511;1104;103173;-76
2021/05/30 09:09:46;;;;;;;25.53;16.60;;;;;;;10.88;72.52;99209.55;125544;1104;102984;-74
2021/05/30 09:12:25;;;;;;;25.50;15.33;;;;;;;10.91;72.54;99203.18;125569;1096;103013;-74
2021/05/30 09:14:57;;;;;;;25.13;15.17;;;;;;;10.97;72.64;99205.41;125605;1103;103147;-75
2021/05/30 09:17:27;;;;;;;26.57;15.80;;;;;;;11.03;72.95;99204.93;125570;1104;102779;-77
2021/05/30 09:20:00;;;;;;;23.43;14.43;;;;;;;11.05;72.70;99211.00;125539;1104;103056;-80
2021/05/30 09:22:36;;;;;;;22.97;14.13;;;;;;;11.08;72.69;99207.28;125577;1104;103040;-79
2021/05/30 09:25:18;;;;;;;23.10;14.50;;;;;;;11.13;72.65;99205.14;125549;1104;103548;-79
2021/05/30 09:28:01;;;;;;;26.83;15.17;;;;;;;11.19;72.70;99215.34;125653;1101;103080;-76
2021/05/30 09:30:42;;;;;;;24.53;15.57;;;;;;;11.21;72.73;99209.89;125513;1101;103008;-73
2021/05/30 09:33:19;;;;;;;24.97;15.53;;;;;;;11.24;72.74;99210.50;125460;1102;103035;-76
2021/05/30 09:35:53;;;;;;;24.30;13.67;;;;;;;11.24;72.71;99209.67;125533;1096;103047;-80
2021/05/30 09:38:32;;;;;;;24.97;14.07;;;;;;;11.27;72.83;99209.45;125538;1096;103012;-77
2021/05/30 09:41:13;;;;;;;23.23;14.50;;;;;;;11.31;72.84;99202.94;125504;1096;103460;-76
2021/05/30 09:43:53;;;;;;;24.97;14.87;;;;;;;11.37;72.87;99204.28;125671;1096;102990;-77
2021/05/30 09:46:33;;;;;;;21.53;12.70;;;;;;;11.37;72.78;99206.95;125616;1096;103075;-76
2021/05/30 09:49:24;;;;;;;21.35;13.50;;;;;;;11.38;72.75;99211.31;125583;1102;103052;-75
2021/05/30 09:51:53;;;;;;;23.30;13.25;;;;;;;11.40;72.69;99209.39;125634;1096;103080;-75
2021/05/30 09:54:25;;;;;;;23.23;12.47;;;;;;;11.41;72.74;99216.41;125536;1104;103013;-74
2021/05/30 09:56:55;;;;;;;20.60;13.00;;;;;;;11.45;73.00;99210.73;125621;1104;103009;-75
2021/05/30 09:59:39;;;;;;;20.57;12.57;;;;;;;11.51;72.85;99209.45;125514;1104;103058;-75
2021/05/30 10:02:15;;;;;;;24.83;13.90;;;;;;;11.55;72.90;99212.72;125607;1104;103048;-74
2021/05/30 10:04:43;;;;;;;23.60;13.00;;;;;;;11.59;72.96;99214.20;125495;1104;103097;-75
2021/05/30 10:07:11;;;;;;;22.00;14.27;;;;;;;11.64;72.70;99216.50;125589;1104;103126;-77
2021/05/30 10:09:40;;;;;;;19.87;11.97;;;;;;;11.67;72.78;99211.81;125624;1104;102733;-75
2021/05/30 10:12:11;;;;;;;20.23;12.57;;;;;;;11.69;72.97;99211.68;125760;1101;103090;-76
2021/05/30 10:14:40;;;;;;;22.03;13.60;;;;;;;11.72;72.86;99212.32;125638;1104;102987;-75
2021/05/30 10:17:13;;;;;;;20.67;11.23;;;;;;;11.73;72.69;99205.16;125629;1104;103011;-75
2021/05/30 10:19:48;;;;;;;21.57;11.77;;;;;;;11.72;72.80;99203.45;125566;1104;102984;-75
2021/05/30 10:22:17;;;;;;;20.67;12.20;;;;;;;11.75;72.84;99211.22;125820;1102;103094;-76
2021/05/30 10:24:49;;;;;;;19.80;11.87;;;;;;;11.77;72.95;99203.97;125495;1104;103149;-73
2021/05/30 10:27:29;;;;;;;19.53;11.20;;;;;;;11.77;72.75;99201.30;125567;1104;103075;-78
2021/05/30 10:30:10;;;;;;;21.77;11.40;;;;;;;11.80;72.96;99201.07;125564;1097;103042;-77
2021/05/30 10:33:12;;;;;;;24.17;13.63;;;;;;;11.82;72.86;99206.30;127683;1104;101189;-76
2021/05/30 10:35:44;;;;;;;20.90;11.67;;;;;;;11.89;73.05;99207.51;125584;1101;103077;-76
2021/05/30 10:38:34;;;;;;;20.07;11.63;;;;;;;11.95;72.92;99216.88;125727;1101;103171;-77
2021/05/30 10:41:20;;;;;;;21.43;11.97;;;;;;;11.98;72.78;99217.48;125528;1096;103116;-78
2021/05/30 10:43:51;;;;;;;19.43;11.13;;;;;;;12.02;72.93;99208.31;125544;1104;103075;-76
2021/05/30 10:46:19;;;;;;;18.05;10.85;;;;;;;12.06;72.96;99209.78;125582;1096;103059;-78
2021/05/30 10:49:15;;;;;;;19.50;10.40;;;;;;;12.11;73.07;99212.08;125538;1104;104494;-78
2021/05/30 10:51:49;;;;;;;18.63;10.47;;;;;;;12.16;72.83;99209.91;125517;1104;103115;-76
2021/05/30 10:54:17;;;;;;;18.13;10.03;;;;;;;12.21;72.95;99207.74;125657;1096;103204;-75
2021/05/30 10:56:57;;;;;;;15.97;8.67;;;;;;;12.25;72.88;99213.67;125713;1101;102982;-81
2021/05/30 10:59:29;;;;;;;18.70;8.60;;;;;;;12.29;72.91;99209.80;125742;1101;103110;-78
2021/05/30 11:02:01;;;;;;;17.15;9.00;;;;;;;12.34;72.89;99210.30;125581;1102;103100;-81
2021/05/30 11:04:31;;;;;;;14.97;7.97;;;;;;;12.41;72.69;99202.69;125495;1101;103003;-76
2021/05/30 11:07:21;;;;;;;15.10;7.70;;;;;;;12.43;72.85;99211.39;125560;1101;103055;-75
2021/05/30 11:09:54;;;;;;;16.50;7.73;;;;;;;12.46;72.78;99210.32;125499;1104;102995;-77
2021/05/30 11:12:30;;;;;;;15.30;7.47;;;;;;;12.51;72.91;99216.14;125539;1104;103059;-77
2021/05/30 11:15:11;;;;;;;14.53;7.13;;;;;;;12.55;73.01;99212.27;125511;1104;103075;-77
2021/05/30 11:17:51;;;;;;;14.07;7.10;;;;;;;12.57;73.00;99217.47;125511;1104;103202;-74
2021/05/30 11:20:43;;;;;;;13.67;6.50;;;;;;;12.60;72.98;99215.43;125583;1104;103073;-76
2021/05/30 11:23:19;;;;;;;14.73;7.10;;;;;;;12.63;72.97;99219.66;125874;1104;103006;-77
2021/05/30 11:25:56;;;;;;;11.17;6.47;;;;;;;12.64;72.97;99214.19;125503;1104;103012;-86
2021/05/30 11:28:28;;;;;;;14.10;7.27;;;;;;;12.69;72.74;99212.98;125534;1096;103119;-83